Time;durP1;ratioP1;P1;durP2;ratioP2;P2;SDS_P1;SDS_P2;PMS_P1;PMS_P2;Temp;Humidity;BMP_temperature;BMP_pressure;BME280_temperature;BME280_humidity;BME280_pressure;Samples;Min_cycle;Max_cycle;Signal;HPM_P1;HPM_P2
2024/01/13 00:01:18;;;;;;;146.30;45.50;;;2.90;99.90;;;;;;753366;189;26550;-74
2024/01/13 00:03:45;;;;;;;139.87;42.63;;;2.80;99.90;;;;;;757169;189;27059;-74
2024/01/13 00:06:11;;;;;;;133.43;42.17;;;2.90;99.90;;;;;;755192;187;26594;-74
2024/01/13 00:08:38;;;;;;;128.80;41.03;;;2.90;99.90;;;;;;764963;187;26497;-74
2024/01/13 00:11:05;;;;;;;141.97;43.07;;;2.90;99.90;;;;;;766786;187;27769;-74
2024/01/13 00:13:31;;;;;;;139.67;41.50;;;2.90;99.90;;;;;;766527;187;27273;-74
2024/01/13 00:15:59;;;;;;;141.80;41.07;;;2.90;99.90;;;;;;761133;187;26537;-74
2024/01/13 00:18:25;;;;;;;133.63;39.20;;;2.90;99.90;;;;;;762370;187;26543;-74
2024/01/13 00:20:52;;;;;;;145.07;45.73;;;2.90;99.90;;;;;;762847;187;26509;-74
2024/01/13 00:23:18;;;;;;;135.37;40.97;;;2.90;99.90;;;;;;757288;189;26520;-75
2024/01/13 00:25:45;;;;;;;137.07;45.37;;;2.90;99.90;;;;;;754303;189;26514;-74
2024/01/13 00:28:11;;;;;;;136.50;41.23;;;2.90;99.90;;;;;;747397;187;26532;-75
2024/01/13 00:30:38;;;;;;;138.43;41.80;;;2.90;99.90;;;;;;760647;187;26554;-75
2024/01/13 00:33:05;;;;;;;133.03;41.80;;;2.90;99.90;;;;;;762047;187;26496;-75
2024/01/13 00:35:32;;;;;;;446.17;144.93;;;2.90;99.90;;;;;;765376;187;26515;-76
2024/01/13 00:37:58;;;;;;;178.57;55.13;;;2.90;99.90;;;;;;745904;189;26541;-76
2024/01/13 00:40:25;;;;;;;150.33;43.93;;;2.90;99.90;;;;;;760040;187;27092;-75
2024/01/13 00:42:52;;;;;;;146.93;48.10;;;2.90;99.90;;;;;;757702;187;27109;-75
2024/01/13 00:45:19;;;;;;;137.40;41.43;;;2.90;99.90;;;;;;774431;178;26550;-74
2024/01/13 00:47:45;;;;;;;132.57;42.33;;;2.90;99.90;;;;;;789555;180;26743;-75
2024/01/13 00:50:12;;;;;;;151.63;45.13;;;2.90;99.90;;;;;;790152;180;26484;-75
2024/01/13 00:52:38;;;;;;;133.17;41.27;;;2.90;99.90;;;;;;792217;180;26456;-75
2024/01/13 00:55:05;;;;;;;155.33;45.70;;;2.90;99.90;;;;;;790157;181;26513;-75
2024/01/13 00:57:32;;;;;;;144.70;44.47;;;2.90;99.90;;;;;;795721;180;26489;-76
2024/01/13 00:59:59;;;;;;;135.20;40.03;;;2.90;99.90;;;;;;796660;180;26480;-76
2024/01/13 01:02:25;;;;;;;127.43;42.03;;;2.90;99.90;;;;;;795431;180;26462;-76
2024/01/13 01:04:52;;;;;;;132.93;42.70;;;2.90;99.90;;;;;;795999;179;26461;-75
2024/01/13 01:07:18;;;;;;;132.33;40.63;;;3.00;99.90;;;;;;793300;178;26521;-76
2024/01/13 01:09:45;;;;;;;146.00;44.40;;;3.00;99.90;;;;;;789758;180;26478;-75
2024/01/13 01:12:12;;;;;;;156.83;49.53;;;2.90;99.90;;;;;;788848;182;26455;-75
2024/01/13 01:14:38;;;;;;;153.50;48.20;;;3.00;99.90;;;;;;789978;180;26496;-76
2024/01/13 01:17:05;;;;;;;148.90;44.63;;;2.90;99.90;;;;;;794783;179;26588;-76
2024/01/13 01:19:31;;;;;;;361.63;106.23;;;2.90;99.90;;;;;;790135;180;26475;-76
2024/01/13 01:21:58;;;;;;;305.07;90.90;;;2.90;99.90;;;;;;793224;180;26510;-75
2024/01/13 01:24:24;;;;;;;197.90;61.57;;;2.90;99.90;;;;;;797752;180;26483;-75
2024/01/13 01:26:51;;;;;;;187.93;56.67;;;2.90;99.90;;;;;;795853;180;27016;-75
2024/01/13 01:29:18;;;;;;;166.67;54.20;;;2.90;99.90;;;;;;793447;179;26484;-75
2024/01/13 01:31:44;;;;;;;167.50;52.60;;;2.90;99.90;;;;;;792071;179;26961;-76
2024/01/13 01:34:11;;;;;;;179.70;59.23;;;2.90;99.90;;;;;;794051;180;26553;-75
2024/01/13 01:36:37;;;;;;;163.57;49.07;;;2.90;99.90;;;;;;795886;179;26956;-75
2024/01/13 01:39:04;;;;;;;177.17;58.07;;;2.90;99.90;;;;;;791939;180;26476;-75
2024/01/13 01:41:31;;;;;;;229.73;65.00;;;2.90;99.90;;;;;;789896;180;27014;-75
2024/01/13 01:43:57;;;;;;;207.47;64.50;;;2.90;99.90;;;;;;788334;178;26450;-75
2024/01/13 01:46:24;;;;;;;251.97;75.50;;;2.90;99.90;;;;;;791885;180;26991;-75
2024/01/13 01:48:50;;;;;;;170.70;53.70;;;2.90;99.90;;;;;;794430;180;26658;-76
2024/01/13 01:51:17;;;;;;;245.97;74.20;;;2.90;99.90;;;;;;793548;180;26964;-75
2024/01/13 01:53:45;;;;;;;164.47;53.57;;;2.90;99.90;;;;;;789529;179;26505;-75
2024/01/13 01:56:12;;;;;;;137.03;42.47;;;2.90;99.90;;;;;;788741;179;26447;-75
2024/01/13 01:58:39;;;;;;;149.13;44.77;;;2.90;99.90;;;;;;790844;174;26470;-75
2024/01/13 02:01:05;;;;;;;169.73;50.87;;;3.00;99.90;;;;;;792238;174;27018;-75
2024/01/13 02:03:32;;;;;;;179.97;53.80;;;3.00;99.90;;;;;;793264;180;26425;-73
2024/01/13 02:06:01;;;;;;;148.73;46.83;;;3.00;99.90;;;;;;792889;180;27020;-76
2024/01/13 02:08:25;;;;;;;185.17;55.30;;;3.00;99.90;;;;;;791065;180;26489;-74
2024/01/13 02:10:52;;;;;;;110.67;38.73;;;3.00;99.80;;;;;;789807;180;27061;-74
2024/01/13 02:13:18;;;;;;;123.07;40.23;;;3.00;99.70;;;;;;794564;180;27338;-74
2024/01/13 02:15:45;;;;;;;115.27;38.50;;;3.00;99.70;;;;;;793438;180;26473;-72
2024/01/13 02:18:12;;;;;;;115.70;38.90;;;3.00;99.60;;;;;;792946;180;27075;-74
2024/01/13 02:20:38;;;;;;;110.53;37.97;;;3.00;99.40;;;;;;792497;179;26438;-75
2024/01/13 02:23:05;;;;;;;111.60;36.90;;;3.00;99.30;;;;;;794700;180;26971;-74
2024/01/13 02:25:31;;;;;;;122.50;39.80;;;3.00;99.40;;;;;;794456;180;26436;-75
2024/01/13 02:27:58;;;;;;;123.67;38.60;;;3.00;99.40;;;;;;795934;178;27029;-74
2024/01/13 02:30:25;;;;;;;122.97;38.47;;;3.00;99.30;;;;;;797073;179;26541;-75
2024/01/13 02:32:51;;;;;;;115.20;39.43;;;3.00;99.40;;;;;;797215;179;26963;-75
2024/01/13 02:35:18;;;;;;;106.50;36.40;;;3.00;99.30;;;;;;796571;179;26484;-68
2024/01/13 02:37:44;;;;;;;111.77;37.10;;;3.00;99.30;;;;;;795177;180;27002;-69
2024/01/13 02:40:11;;;;;;;103.67;35.70;;;3.00;99.30;;;;;;792956;180;26440;-69
2024/01/13 02:42:38;;;;;;;109.67;36.27;;;3.00;99.40;;;;;;796134;178;26469;-76
2024/01/13 02:45:04;;;;;;;116.57;40.53;;;3.10;99.40;;;;;;796384;180;26968;-75
2024/01/13 02:47:37;;;;;;;133.93;43.07;;;3.10;99.30;;;;;;794146;180;26460;-73
2024/01/13 02:50:03;;;;;;;139.57;47.17;;;3.10;99.30;;;;;;794138;180;26454;-75
2024/01/13 02:52:30;;;;;;;130.57;43.70;;;3.10;99.30;;;;;;794987;180;27007;-76
2024/01/13 02:54:56;;;;;;;100.80;37.00;;;3.10;99.10;;;;;;797706;180;26503;-76
2024/01/13 02:57:23;;;;;;;123.90;42.27;;;3.10;99.00;;;;;;797619;179;27052;-76
2024/01/13 02:59:50;;;;;;;97.30;36.63;;;3.10;98.90;;;;;;793450;179;26424;-75
2024/01/13 03:02:16;;;;;;;107.97;35.53;;;3.20;98.80;;;;;;797698;180;27055;-72
2024/01/13 03:04:43;;;;;;;104.63;35.40;;;3.20;98.70;;;;;;797039;179;26433;-74
2024/01/13 03:07:09;;;;;;;124.43;42.83;;;3.20;98.50;;;;;;788915;180;26976;-73
2024/01/13 03:09:36;;;;;;;91.67;31.73;;;3.20;98.60;;;;;;795408;179;26468;-76
2024/01/13 03:12:03;;;;;;;99.80;34.53;;;3.20;98.40;;;;;;798896;179;26964;-76
2024/01/13 03:14:30;;;;;;;87.57;32.20;;;3.20;98.30;;;;;;795078;179;26447;-75
2024/01/13 03:16:56;;;;;;;102.47;34.03;;;3.20;98.30;;;;;;794237;179;26990;-74
2024/01/13 03:19:22;;;;;;;96.87;34.17;;;3.20;98.30;;;;;;795062;180;26479;-75
2024/01/13 03:21:49;;;;;;;97.77;33.47;;;3.20;98.20;;;;;;795229;179;27015;-75
2024/01/13 03:24:16;;;;;;;114.80;38.20;;;3.20;98.20;;;;;;793413;180;26498;-75
2024/01/13 03:26:42;;;;;;;108.87;37.07;;;3.20;98.20;;;;;;792176;180;27043;-75
2024/01/13 03:29:09;;;;;;;97.80;33.60;;;3.20;98.10;;;;;;796183;180;26477;-75
2024/01/13 03:31:35;;;;;;;97.43;32.70;;;3.20;98.10;;;;;;793557;180;27019;-75
2024/01/13 03:34:02;;;;;;;112.37;39.93;;;3.20;98.00;;;;;;788861;181;26427;-76
2024/01/13 03:36:29;;;;;;;105.17;37.07;;;3.20;97.90;;;;;;789125;180;26966;-75
2024/01/13 03:38:56;;;;;;;101.87;35.77;;;3.20;97.90;;;;;;796142;180;26470;-76
2024/01/13 03:41:22;;;;;;;99.53;33.57;;;3.20;97.90;;;;;;792827;177;27036;-76
2024/01/13 03:43:49;;;;;;;88.47;30.90;;;3.20;97.90;;;;;;794312;177;26424;-76
2024/01/13 03:46:15;;;;;;;85.80;31.17;;;3.20;97.80;;;;;;794822;179;27003;-76
2024/01/13 03:48:41;;;;;;;84.23;30.43;;;3.20;97.70;;;;;;796115;180;26432;-75
2024/01/13 03:51:08;;;;;;;87.97;32.03;;;3.20;97.80;;;;;;797384;179;26987;-75
2024/01/13 03:53:35;;;;;;;91.07;33.17;;;3.20;97.80;;;;;;799174;179;26454;-77
2024/01/13 03:56:04;;;;;;;81.60;32.27;;;3.20;97.80;;;;;;798601;179;27224;-73
2024/01/13 03:58:28;;;;;;;86.83;30.33;;;3.20;97.80;;;;;;798567;179;26470;-76
2024/01/13 04:00:55;;;;;;;109.90;37.60;;;3.20;97.90;;;;;;798827;179;26974;-75
2024/01/13 04:03:21;;;;;;;100.90;35.30;;;3.20;97.80;;;;;;787851;181;26443;-76
2024/01/13 04:05:48;;;;;;;100.17;33.57;;;3.20;97.60;;;;;;795727;180;27111;-74
2024/01/13 04:08:14;;;;;;;98.23;34.37;;;3.20;97.60;;;;;;791491;179;26454;-76
2024/01/13 04:10:41;;;;;;;73.77;28.33;;;3.20;97.60;;;;;;794230;180;26473;-76
2024/01/13 04:13:11;;;;;;;82.47;31.27;;;3.20;97.60;;;;;;793793;180;26416;-75
2024/01/13 04:15:37;;;;;;;109.03;35.43;;;3.20;97.60;;;;;;790701;178;26995;-76
2024/01/13 04:18:04;;;;;;;83.60;29.70;;;3.20;97.70;;;;;;788322;181;26482;-76
2024/01/13 04:20:30;;;;;;;88.20;30.87;;;3.20;97.30;;;;;;792755;178;26591;-76
2024/01/13 04:22:57;;;;;;;76.87;27.80;;;3.20;97.10;;;;;;792574;180;26509;-76
2024/01/13 04:25:23;;;;;;;80.60;28.73;;;3.20;97.10;;;;;;790961;180;26516;-76
2024/01/13 04:27:52;;;;;;;78.60;30.40;;;3.30;97.20;;;;;;792407;180;26449;-75
2024/01/13 04:30:17;;;;;;;75.00;27.47;;;3.30;97.10;;;;;;793084;179;26506;-75
2024/01/13 04:32:43;;;;;;;81.00;30.07;;;3.30;97.00;;;;;;789794;180;26500;-75
2024/01/13 04:35:10;;;;;;;103.30;33.07;;;3.30;97.00;;;;;;789337;177;28115;-76
2024/01/13 04:37:36;;;;;;;83.97;29.60;;;3.30;97.00;;;;;;794303;179;26442;-76
2024/01/13 04:40:03;;;;;;;78.77;28.50;;;3.30;97.10;;;;;;795694;180;28140;-75
2024/01/13 04:42:31;;;;;;;75.93;27.73;;;3.30;97.10;;;;;;797249;180;26509;-76
2024/01/13 04:44:57;;;;;;;70.77;27.10;;;3.30;97.10;;;;;;797075;177;26466;-74
2024/01/13 04:47:23;;;;;;;78.40;27.30;;;3.30;97.20;;;;;;795445;179;26453;-75
2024/01/13 04:49:50;;;;;;;72.67;28.30;;;3.30;97.30;;;;;;795839;178;26471;-75
2024/01/13 04:52:16;;;;;;;73.90;28.17;;;3.30;97.10;;;;;;796463;179;26435;-76
2024/01/13 04:54:43;;;;;;;72.73;26.70;;;3.30;97.00;;;;;;793058;181;26553;-76
2024/01/13 04:57:09;;;;;;;67.10;26.17;;;3.30;97.00;;;;;;791977;180;26437;-75
2024/01/13 04:59:36;;;;;;;67.13;25.53;;;3.30;96.90;;;;;;793227;180;26441;-75
2024/01/13 05:02:03;;;;;;;77.17;27.73;;;3.30;96.80;;;;;;794988;180;26465;-76
2024/01/13 05:04:29;;;;;;;75.73;27.70;;;3.30;96.90;;;;;;797414;180;26525;-76
2024/01/13 05:06:56;;;;;;;70.60;26.57;;;3.30;96.80;;;;;;796682;180;26458;-73
2024/01/13 05:09:23;;;;;;;71.83;26.20;;;3.30;96.80;;;;;;797171;177;26440;-76
2024/01/13 05:11:49;;;;;;;74.60;27.17;;;3.30;96.60;;;;;;793336;179;26502;-76
2024/01/13 05:14:16;;;;;;;74.00;27.70;;;3.30;96.60;;;;;;790862;179;26436;-76
2024/01/13 05:16:42;;;;;;;71.53;26.20;;;3.40;96.70;;;;;;795375;178;26457;-76
2024/01/13 05:19:09;;;;;;;59.57;25.33;;;3.40;96.90;;;;;;797078;178;26501;-75
2024/01/13 05:21:36;;;;;;;67.87;27.73;;;3.40;96.70;;;;;;796186;178;26535;-73
2024/01/13 05:24:02;;;;;;;68.87;26.67;;;3.40;96.60;;;;;;795678;178;27177;-76
2024/01/13 05:26:29;;;;;;;73.33;27.97;;;3.40;96.50;;;;;;794865;179;26458;-75
2024/01/13 05:28:55;;;;;;;63.93;27.40;;;3.40;96.40;;;;;;795159;179;26437;-75
2024/01/13 05:31:22;;;;;;;58.93;26.30;;;3.40;96.50;;;;;;795132;179;26437;-76
2024/01/13 05:33:49;;;;;;;71.87;26.70;;;3.40;96.40;;;;;;799768;179;26445;-75
2024/01/13 05:36:15;;;;;;;67.27;27.50;;;3.40;96.40;;;;;;797522;179;26508;-75
2024/01/13 05:38:42;;;;;;;66.70;27.57;;;3.40;96.40;;;;;;796391;179;26999;-74
2024/01/13 05:41:08;;;;;;;73.23;29.27;;;3.40;96.20;;;;;;794811;178;26443;-76
2024/01/13 05:43:35;;;;;;;77.97;30.37;;;3.40;96.20;;;;;;796241;177;26501;-76
2024/01/13 05:46:01;;;;;;;72.90;28.57;;;3.40;96.20;;;;;;797005;178;28234;-76
2024/01/13 05:48:28;;;;;;;74.73;29.50;;;3.40;96.20;;;;;;796555;179;26484;-74
2024/01/13 05:50:55;;;;;;;75.00;30.23;;;3.40;96.30;;;;;;795585;179;26965;-73
2024/01/13 05:53:21;;;;;;;77.10;29.90;;;3.40;96.40;;;;;;796154;180;26477;-76
2024/01/13 05:55:48;;;;;;;80.07;30.50;;;3.40;96.50;;;;;;796287;179;27011;-75
2024/01/13 05:58:14;;;;;;;86.70;33.00;;;3.40;96.60;;;;;;791925;180;26489;-76
2024/01/13 06:00:41;;;;;;;83.37;30.67;;;3.40;96.70;;;;;;793619;180;26417;-75
2024/01/13 06:03:08;;;;;;;89.33;32.57;;;3.40;96.80;;;;;;795671;179;26481;-75
2024/01/13 06:05:34;;;;;;;83.33;31.83;;;3.40;96.80;;;;;;794547;180;26457;-76
2024/01/13 06:08:01;;;;;;;83.70;33.43;;;3.40;96.80;;;;;;796734;180;26473;-75
2024/01/13 06:10:28;;;;;;;88.13;33.23;;;3.30;96.70;;;;;;796778;179;26503;-75
2024/01/13 06:12:54;;;;;;;88.80;32.87;;;3.30;96.70;;;;;;793961;179;26430;-76
2024/01/13 06:15:21;;;;;;;83.27;32.57;;;3.30;96.60;;;;;;796885;175;26516;-76
2024/01/13 06:17:47;;;;;;;84.67;31.83;;;3.30;96.70;;;;;;795570;179;27030;-73
2024/01/13 06:20:14;;;;;;;85.40;32.07;;;3.30;96.60;;;;;;795526;179;26424;-75
2024/01/13 06:22:40;;;;;;;84.97;32.10;;;3.30;96.60;;;;;;795035;179;26972;-76
2024/01/13 06:25:07;;;;;;;85.77;33.37;;;3.30;96.70;;;;;;792147;179;26532;-76
2024/01/13 06:27:34;;;;;;;76.97;30.50;;;3.30;96.70;;;;;;789073;180;26421;-75
2024/01/13 06:30:00;;;;;;;71.63;29.20;;;3.30;96.70;;;;;;788362;181;26747;-76
2024/01/13 06:32:27;;;;;;;84.10;33.83;;;3.30;96.70;;;;;;788643;180;26421;-76
2024/01/13 06:34:53;;;;;;;75.70;30.03;;;3.30;96.60;;;;;;795606;180;28068;-74
2024/01/13 06:37:20;;;;;;;66.17;28.43;;;3.30;96.50;;;;;;794633;180;26441;-76
2024/01/13 06:39:47;;;;;;;71.87;30.27;;;3.30;96.30;;;;;;797289;179;26986;-75
2024/01/13 06:42:13;;;;;;;68.40;28.00;;;3.30;96.30;;;;;;790286;179;26446;-76
2024/01/13 06:44:40;;;;;;;69.00;29.80;;;3.30;96.30;;;;;;794457;176;26997;-74
2024/01/13 06:47:06;;;;;;;75.47;29.07;;;3.30;96.20;;;;;;782684;182;26488;-74
2024/01/13 06:49:33;;;;;;;69.00;27.83;;;3.30;96.20;;;;;;770487;183;26513;-75
2024/01/13 06:51:59;;;;;;;69.03;28.90;;;3.30;96.10;;;;;;767506;185;26493;-74
2024/01/13 06:54:26;;;;;;;73.20;29.20;;;3.30;96.00;;;;;;762932;187;26543;-75
2024/01/13 06:56:53;;;;;;;69.23;29.57;;;3.30;95.90;;;;;;769288;185;26532;-75
2024/01/13 06:59:20;;;;;;;68.30;29.00;;;3.30;96.00;;;;;;763406;186;27007;-75
2024/01/13 07:01:49;;;;;;;66.10;27.43;;;3.30;96.00;;;;;;762576;187;26490;-75
2024/01/13 07:04:15;;;;;;;63.17;27.17;;;3.30;96.00;;;;;;764509;187;26540;-75
2024/01/13 07:06:42;;;;;;;63.43;28.80;;;3.30;96.00;;;;;;763357;187;26533;-74
2024/01/13 07:09:08;;;;;;;69.20;30.87;;;3.40;95.80;;;;;;764591;187;26548;-75
2024/01/13 07:11:35;;;;;;;66.33;30.23;;;3.40;95.70;;;;;;763147;187;26522;-75
2024/01/13 07:14:01;;;;;;;61.80;27.27;;;3.40;95.90;;;;;;760600;187;26527;-75
2024/01/13 07:16:28;;;;;;;64.07;28.90;;;3.40;95.90;;;;;;758608;189;26525;-75
2024/01/13 07:18:55;;;;;;;55.23;27.13;;;3.40;95.80;;;;;;759408;188;26492;-75
2024/01/13 07:21:21;;;;;;;67.83;30.23;;;3.40;95.80;;;;;;757939;187;26467;-76
2024/01/13 07:23:48;;;;;;;60.63;28.90;;;3.40;95.80;;;;;;764507;187;27111;-75
2024/01/13 07:26:14;;;;;;;63.37;29.03;;;3.40;95.60;;;;;;760818;187;26495;-75
2024/01/13 07:28:41;;;;;;;74.23;29.83;;;3.40;95.70;;;;;;767982;184;27087;-75
2024/01/13 07:31:08;;;;;;;71.37;30.27;;;3.40;95.50;;;;;;764953;187;26537;-75
2024/01/13 07:33:34;;;;;;;68.40;32.33;;;3.40;95.50;;;;;;756444;189;27108;-76
2024/01/13 07:36:01;;;;;;;67.20;31.00;;;3.40;95.60;;;;;;763845;185;26559;-75
2024/01/13 07:38:27;;;;;;;71.00;31.47;;;3.40;95.70;;;;;;760287;185;27041;-75
2024/01/13 07:40:54;;;;;;;72.60;30.77;;;3.40;95.80;;;;;;760010;189;26464;-75
2024/01/13 07:43:21;;;;;;;74.90;32.00;;;3.40;95.70;;;;;;764965;185;27072;-76
2024/01/13 07:45:47;;;;;;;68.83;32.73;;;3.40;95.60;;;;;;762458;187;26546;-74
2024/01/13 07:48:14;;;;;;;70.10;31.47;;;3.40;95.70;;;;;;769840;185;27010;-76
2024/01/13 07:50:40;;;;;;;73.40;32.30;;;3.40;95.50;;;;;;765951;187;26554;-75
2024/01/13 07:53:07;;;;;;;69.97;32.03;;;3.40;95.30;;;;;;761919;187;27123;-75
2024/01/13 07:55:34;;;;;;;63.17;30.30;;;3.40;95.40;;;;;;763842;185;26550;-75
2024/01/13 07:58:00;;;;;;;73.43;32.73;;;3.40;95.40;;;;;;769093;184;27061;-76
2024/01/13 08:00:27;;;;;;;70.60;30.87;;;3.40;95.30;;;;;;760974;187;26458;-77
2024/01/13 08:02:54;;;;;;;73.43;32.53;;;3.40;95.40;;;;;;754061;190;27034;-76
2024/01/13 08:05:21;;;;;;;64.47;31.83;;;3.40;95.30;;;;;;768761;186;26553;-77
2024/01/13 08:07:47;;;;;;;70.67;32.53;;;3.40;95.40;;;;;;762216;187;26510;-76
2024/01/13 08:10:14;;;;;;;65.10;33.10;;;3.40;95.40;;;;;;765893;187;27011;-75
2024/01/13 08:12:41;;;;;;;78.00;34.60;;;3.40;95.30;;;;;;761823;186;26504;-75
2024/01/13 08:15:07;;;;;;;75.43;33.10;;;3.40;95.40;;;;;;761116;187;27083;-75
2024/01/13 08:17:34;;;;;;;71.53;33.43;;;3.40;95.40;;;;;;764047;185;26492;-76
2024/01/13 08:20:04;;;;;;;73.33;33.90;;;3.40;95.30;;;;;;762956;187;26483;-75
2024/01/13 08:22:27;;;;;;;73.73;33.67;;;3.40;95.30;;;;;;768622;183;26499;-75
2024/01/13 08:24:54;;;;;;;74.87;32.60;;;3.50;95.30;;;;;;760525;187;26494;-75
2024/01/13 08:27:20;;;;;;;69.50;34.13;;;3.50;95.20;;;;;;769217;185;26516;-76
2024/01/13 08:29:47;;;;;;;79.60;33.73;;;3.50;95.10;;;;;;764959;187;26525;-75
2024/01/13 08:32:14;;;;;;;72.30;35.17;;;3.50;95.10;;;;;;773398;185;26539;-75
2024/01/13 08:34:40;;;;;;;78.37;34.50;;;3.50;94.90;;;;;;776151;185;27126;-75
2024/01/13 08:37:07;;;;;;;75.30;33.97;;;3.50;94.70;;;;;;763469;185;26530;-75
2024/01/13 08:39:33;;;;;;;75.13;33.53;;;3.50;94.60;;;;;;762409;186;27054;-75
2024/01/13 08:42:00;;;;;;;72.73;33.20;;;3.50;94.70;;;;;;759974;189;26548;-75
2024/01/13 08:44:27;;;;;;;75.60;34.60;;;3.50;94.60;;;;;;760384;185;26468;-76
2024/01/13 08:46:53;;;;;;;78.97;34.70;;;3.50;94.80;;;;;;759044;187;26500;-75
2024/01/13 08:49:21;;;;;;;71.57;32.43;;;3.50;94.70;;;;;;758337;187;26499;-75
2024/01/13 08:51:46;;;;;;;60.77;29.33;;;3.50;94.70;;;;;;759511;187;28092;-75
2024/01/13 08:54:13;;;;;;;66.73;33.70;;;3.50;94.40;;;;;;763666;187;26549;-75
2024/01/13 08:56:39;;;;;;;67.57;32.30;;;3.50;94.50;;;;;;768678;184;27036;-75
2024/01/13 08:59:06;;;;;;;65.40;31.63;;;3.50;94.50;;;;;;760197;187;26466;-75
2024/01/13 09:01:33;;;;;;;71.53;33.60;;;3.50;94.40;;;;;;757636;187;27032;-75
2024/01/13 09:03:59;;;;;;;69.30;32.00;;;3.50;94.40;;;;;;763901;187;26529;-75
2024/01/13 09:06:26;;;;;;;66.77;31.90;;;3.50;94.30;;;;;;760582;187;27104;-75
2024/01/13 09:08:52;;;;;;;71.70;34.30;;;3.50;94.30;;;;;;761125;188;26540;-75
2024/01/13 09:11:19;;;;;;;67.03;29.87;;;3.60;94.60;;;;;;767080;184;27122;-75
2024/01/13 09:13:46;;;;;;;65.73;31.47;;;3.60;94.10;;;;;;774743;184;26542;-75
2024/01/13 09:16:12;;;;;;;66.30;29.77;;;3.60;94.00;;;;;;769963;184;27063;-75
2024/01/13 09:18:39;;;;;;;62.20;30.40;;;3.60;94.00;;;;;;771876;185;26478;-75
2024/01/13 09:21:08;;;;;;;65.70;33.43;;;3.60;94.20;;;;;;760813;188;27065;-75
2024/01/13 09:23:32;;;;;;;63.13;30.03;;;3.70;94.30;;;;;;748703;187;26539;-75
2024/01/13 09:25:59;;;;;;;82.67;36.40;;;3.70;94.20;;;;;;756268;188;26618;-75
2024/01/13 09:28:25;;;;;;;64.07;30.83;;;3.70;94.00;;;;;;761920;187;26545;-75
2024/01/13 09:30:52;;;;;;;61.30;29.60;;;3.70;94.00;;;;;;757640;188;26843;-75
2024/01/13 09:33:18;;;;;;;65.10;31.37;;;3.70;93.90;;;;;;759651;187;26597;-75
2024/01/13 09:35:45;;;;;;;57.90;28.73;;;3.80;94.20;;;;;;757826;188;27111;-75
2024/01/13 09:38:11;;;;;;;52.07;27.07;;;3.80;94.10;;;;;;758528;188;26522;-75
2024/01/13 09:40:41;;;;;;;53.33;27.43;;;3.80;94.20;;;;;;759265;188;26597;-76
2024/01/13 09:43:05;;;;;;;57.57;28.97;;;3.80;94.00;;;;;;756535;188;26475;-74
2024/01/13 09:45:31;;;;;;;54.20;28.23;;;3.90;94.00;;;;;;758268;188;27058;-75
2024/01/13 09:47:58;;;;;;;52.33;27.47;;;3.80;94.00;;;;;;769758;185;26529;-75
2024/01/13 09:50:25;;;;;;;53.13;27.20;;;3.90;94.10;;;;;;767064;187;26480;-75
2024/01/13 09:52:51;;;;;;;47.67;25.90;;;3.90;94.30;;;;;;762886;187;26545;-75
2024/01/13 09:55:18;;;;;;;51.30;27.73;;;3.90;94.10;;;;;;764199;185;26483;-75
2024/01/13 09:57:44;;;;;;;67.93;32.00;;;4.00;94.20;;;;;;766204;185;26549;-76
2024/01/13 10:00:12;;;;;;;51.73;26.83;;;4.00;94.10;;;;;;762959;185;26460;-75
2024/01/13 10:02:38;;;;;;;47.27;24.23;;;4.00;93.90;;;;;;759974;185;27023;-74
2024/01/13 10:05:04;;;;;;;55.23;28.23;;;4.00;94.00;;;;;;762973;185;26557;-75
2024/01/13 10:07:31;;;;;;;165.07;59.73;;;4.00;93.90;;;;;;775598;185;26511;-75
2024/01/13 10:09:58;;;;;;;48.67;23.67;;;4.00;94.20;;;;;;765845;185;26573;-75
2024/01/13 10:12:24;;;;;;;54.13;27.23;;;4.10;94.00;;;;;;776302;184;26539;-75
2024/01/13 10:14:51;;;;;;;49.17;24.37;;;4.10;93.80;;;;;;776167;183;26545;-76
2024/01/13 10:17:18;;;;;;;46.03;23.27;;;4.00;93.90;;;;;;773226;185;26557;-76
2024/01/13 10:19:45;;;;;;;44.77;22.30;;;4.00;94.00;;;;;;762091;186;27032;-75
2024/01/13 10:22:11;;;;;;;42.70;20.93;;;4.00;93.90;;;;;;766036;187;26536;-75
2024/01/13 10:24:37;;;;;;;41.20;22.00;;;4.00;93.90;;;;;;761386;188;27107;-76
2024/01/13 10:27:04;;;;;;;42.17;21.43;;;4.00;94.00;;;;;;777317;184;26483;-75
2024/01/13 10:29:32;;;;;;;112.43;41.33;;;4.00;94.00;;;;;;770463;185;26524;-74
2024/01/13 10:31:58;;;;;;;139.67;48.43;;;4.00;94.00;;;;;;764416;187;26462;-75
2024/01/13 10:34:24;;;;;;;50.50;25.23;;;4.00;93.90;;;;;;761634;186;26518;-75
2024/01/13 10:36:51;;;;;;;38.57;21.23;;;4.00;93.90;;;;;;770701;185;26467;-74
2024/01/13 10:39:17;;;;;;;55.70;25.47;;;4.00;93.90;;;;;;767404;185;26487;-76
2024/01/13 10:41:44;;;;;;;55.57;24.17;;;4.00;94.00;;;;;;765451;185;26495;-75
2024/01/13 10:44:10;;;;;;;46.93;21.17;;;4.00;93.90;;;;;;760454;187;26546;-75
2024/01/13 10:46:37;;;;;;;39.07;20.83;;;4.10;94.00;;;;;;769244;184;26528;-75
2024/01/13 10:49:04;;;;;;;36.73;19.60;;;4.20;94.20;;;;;;760669;183;26486;-75
2024/01/13 10:51:35;;;;;;;32.60;18.30;;;4.20;94.20;;;;;;760397;187;27103;-75
2024/01/13 10:54:01;;;;;;;35.03;18.57;;;4.20;94.00;;;;;;761998;187;26510;-74
2024/01/13 10:56:29;;;;;;;34.23;17.33;;;4.20;93.80;;;;;;759017;187;26523;-74
2024/01/13 10:58:55;;;;;;;32.87;17.33;;;4.20;93.90;;;;;;763117;187;26653;-75
2024/01/13 11:01:22;;;;;;;30.97;17.30;;;4.10;94.00;;;;;;767813;185;26477;-74
2024/01/13 11:03:48;;;;;;;36.90;17.57;;;4.10;94.00;;;;;;761204;187;26483;-75
2024/01/13 11:06:15;;;;;;;38.00;21.27;;;4.10;94.20;;;;;;757433;188;26519;-75
2024/01/13 11:08:42;;;;;;;39.57;21.40;;;4.10;94.40;;;;;;757322;188;26509;-76
2024/01/13 11:11:08;;;;;;;46.53;24.00;;;4.10;94.50;;;;;;756805;188;26490;-74
2024/01/13 11:13:37;;;;;;;62.37;27.30;;;4.20;94.70;;;;;;759070;188;26509;-74
2024/01/13 11:16:04;;;;;;;85.07;29.53;;;4.20;94.80;;;;;;749119;187;27017;-76
2024/01/13 11:18:30;;;;;;;50.37;24.57;;;4.20;94.50;;;;;;731040;191;26531;-74
2024/01/13 11:21:01;;;;;;;54.27;23.77;;;4.10;94.40;;;;;;763917;187;26456;-74
2024/01/13 11:23:27;;;;;;;46.63;21.33;;;4.10;94.50;;;;;;759182;187;26455;-75
2024/01/13 11:25:54;;;;;;;44.83;22.57;;;4.00;94.70;;;;;;762713;187;26497;-74
2024/01/13 11:28:21;;;;;;;37.27;17.90;;;3.90;94.80;;;;;;761133;187;27023;-75
2024/01/13 11:30:48;;;;;;;36.20;18.60;;;3.90;94.90;;;;;;762634;184;26470;-75
2024/01/13 11:33:15;;;;;;;35.57;19.53;;;3.80;95.00;;;;;;737710;194;26526;-75
2024/01/13 11:35:40;;;;;;;39.53;20.13;;;3.80;95.30;;;;;;748783;187;26467;-75
2024/01/13 11:38:07;;;;;;;38.83;20.70;;;3.90;95.60;;;;;;763380;184;26534;-75
2024/01/13 11:40:34;;;;;;;79.73;31.10;;;3.90;95.60;;;;;;736959;193;27052;-75
2024/01/13 11:43:00;;;;;;;165.17;59.97;;;3.90;95.50;;;;;;737059;195;26582;-75
2024/01/13 11:45:35;;;;;;;83.83;35.03;;;3.90;95.60;;;;;;741156;188;27127;-75
2024/01/13 11:48:10;;;;;;;237.50;69.40;;;3.80;95.80;;;;;;767792;185;27116;-75
2024/01/13 11:50:37;;;;;;;116.33;42.23;;;3.80;95.70;;;;;;766755;183;26491;-75
2024/01/13 11:53:03;;;;;;;125.73;48.60;;;3.70;95.80;;;;;;760385;189;26573;-74
2024/01/13 11:55:30;;;;;;;52.47;23.80;;;3.70;96.10;;;;;;755294;187;26539;-74
2024/01/13 11:57:57;;;;;;;45.27;23.37;;;3.70;96.40;;;;;;762819;187;26569;-75
2024/01/13 12:00:23;;;;;;;54.50;26.73;;;3.60;96.60;;;;;;765263;186;26540;-75
2024/01/13 12:02:50;;;;;;;50.07;25.00;;;3.60;96.80;;;;;;757715;188;26525;-75
2024/01/13 12:05:16;;;;;;;50.47;23.80;;;3.60;97.10;;;;;;766468;185;26549;-74
2024/01/13 12:07:43;;;;;;;51.27;26.40;;;3.50;97.00;;;;;;767744;185;26517;-75
2024/01/13 12:10:10;;;;;;;101.93;42.33;;;3.50;97.10;;;;;;774996;185;26514;-75
2024/01/13 12:12:36;;;;;;;114.43;44.20;;;3.50;97.40;;;;;;767248;185;26469;-75
2024/01/13 12:15:03;;;;;;;76.53;31.97;;;3.60;97.40;;;;;;762784;185;26539;-75
2024/01/13 12:17:30;;;;;;;234.90;83.73;;;3.60;97.40;;;;;;735946;193;26518;-74
2024/01/13 12:19:56;;;;;;;162.90;59.17;;;3.50;97.40;;;;;;760040;187;28767;-75
2024/01/13 12:22:23;;;;;;;145.33;51.90;;;3.50;97.50;;;;;;768297;185;26527;-75
2024/01/13 12:24:50;;;;;;;98.10;39.00;;;3.50;97.50;;;;;;759284;188;26537;-75
2024/01/13 12:27:16;;;;;;;99.47;38.37;;;3.50;97.80;;;;;;758722;187;26488;-74
2024/01/13 12:29:43;;;;;;;256.83;79.23;;;3.50;97.80;;;;;;760023;188;26464;-74